Time;durP1;ratioP1;P1;durP2;ratioP2;P2;SDS_P1;SDS_P2;PMS_P1;PMS_P2;Temp;Humidity;BMP_temperature;BMP_pressure;BME280_temperature;BME280_humidity;BME280_pressure;Samples;Min_cycle;Max_cycle;Signal;HPM_P1;HPM_P2
2022/03/28 00:02:08;;;;;;;24.55;8.00;;;;;;;7.48;65.99;102656.94;5075272;28;20028;-82
2022/03/28 00:04:33;;;;;;;20.05;8.48;;;;;;;7.49;65.32;102661.38;5055759;28;20036;-82
2022/03/28 00:06:59;;;;;;;19.90;8.48;;;;;;;7.43;65.24;102648.06;5072432;28;20028;-82
2022/03/28 00:09:24;;;;;;;26.13;8.88;;;;;;;7.41;64.10;102652.41;5066410;28;20453;-82
2022/03/28 00:11:50;;;;;;;17.05;8.07;;;;;;;7.36;64.23;102651.41;5090699;28;20197;-82
2022/03/28 00:14:15;;;;;;;24.73;8.85;;;;;;;7.32;65.59;102650.47;5092722;28;20051;-82
2022/03/28 00:16:42;;;;;;;21.75;8.60;;;;;;;7.29;65.01;102646.88;5051815;28;20102;-82
2022/03/28 00:19:07;;;;;;;24.73;8.57;;;;;;;7.25;64.73;102640.66;5085483;28;20052;-82
2022/03/28 00:21:33;;;;;;;22.42;8.55;;;;;;;7.19;64.58;102635.25;5089909;28;20115;-82
2022/03/28 00:23:58;;;;;;;25.40;8.38;;;;;;;7.17;65.13;102636.06;5055312;28;20039;-81
2022/03/28 00:26:24;;;;;;;19.38;7.90;;;;;;;7.15;63.55;102637.81;5081289;28;20020;-82
2022/03/28 00:28:49;;;;;;;22.45;8.55;;;;;;;7.10;65.57;102624.53;5088836;28;20040;-82
2022/03/28 00:31:15;;;;;;;26.40;7.82;;;;;;;7.07;66.01;102622.72;5074047;28;20467;-82
2022/03/28 00:33:41;;;;;;;20.08;8.20;;;;;;;7.04;66.92;102612.09;5068181;28;20032;-82
2022/03/28 00:36:07;;;;;;;22.65;8.10;;;;;;;7.03;66.10;102606.81;5075178;28;20059;-82
2022/03/28 00:38:33;;;;;;;19.90;8.45;;;;;;;7.01;66.25;102606.78;5071685;28;20078;-82
2022/03/28 00:40:58;;;;;;;29.02;9.70;;;;;;;6.98;66.46;102601.47;5092050;28;20090;-82
2022/03/28 00:43:24;;;;;;;23.70;8.30;;;;;;;6.94;67.11;102604.88;5092392;28;20035;-82
2022/03/28 00:45:50;;;;;;;25.50;8.60;;;;;;;6.87;65.91;102601.25;5074387;28;20050;-82
2022/03/28 00:48:15;;;;;;;24.27;9.00;;;;;;;6.87;68.21;102602.97;5074171;28;20089;-82
2022/03/28 00:50:41;;;;;;;22.90;8.88;;;;;;;6.85;67.36;102605.56;5092240;28;20123;-82
2022/03/28 00:53:10;;;;;;;26.88;8.45;;;;;;;6.79;67.17;102600.16;5057248;28;20028;-82
2022/03/28 00:55:36;;;;;;;15.55;7.50;;;;;;;6.76;67.59;102594.84;5092170;28;20371;-82
2022/03/28 00:58:02;;;;;;;26.83;8.50;;;;;;;6.73;65.75;102597.41;5092061;28;20111;-82
2022/03/28 01:00:27;;;;;;;24.80;8.07;;;;;;;6.70;67.88;102592.09;5073633;28;20463;-82
2022/03/28 01:02:53;;;;;;;28.60;9.70;;;;;;;6.66;68.31;102590.22;5092319;28;20039;-82
2022/03/28 01:05:18;;;;;;;18.58;7.38;;;;;;;6.60;66.86;102584.81;5073865;28;20133;-82
2022/03/28 01:07:44;;;;;;;20.05;7.72;;;;;;;6.54;67.44;102585.56;5092096;28;20589;-82
2022/03/28 01:10:11;;;;;;;25.70;8.07;;;;;;;6.52;67.69;102587.28;5073631;28;20036;-82
2022/03/28 01:12:42;;;;;;;24.85;7.93;;;;;;;6.50;68.13;102583.72;5091991;28;20394;-82
2022/03/28 01:15:11;;;;;;;26.08;7.88;;;;;;;6.49;68.62;102570.53;5092034;28;20043;-82
2022/03/28 01:20:28;;;;;;;;;;;;;;;6.57;64.69;102574.22;5092494;28;20046;-82
2022/03/28 01:22:54;;;;;;;21.15;7.57;;;;;;;6.48;69.02;102572.28;5091088;28;19912;-82
2022/03/28 01:25:23;;;;;;;22.52;8.27;;;;;;;6.45;69.32;102569.56;5091923;28;20032;-82
2022/03/28 01:27:50;;;;;;;25.90;8.00;;;;;;;6.42;69.98;102565.13;5073244;28;20436;-82
2022/03/28 01:30:16;;;;;;;23.75;7.75;;;;;;;6.43;69.41;102560.78;5090500;28;20054;-82
2022/03/28 01:32:41;;;;;;;25.33;7.90;;;;;;;6.38;69.37;102558.03;5073276;28;20048;-82
2022/03/28 01:35:07;;;;;;;33.92;8.48;;;;;;;6.39;69.25;102553.66;5090172;28;20052;-83
2022/03/28 01:37:32;;;;;;;27.83;7.82;;;;;;;6.39;69.70;102553.66;5071394;28;20036;-83
2022/03/28 01:39:58;;;;;;;28.27;8.32;;;;;;;6.38;69.74;102560.66;5053383;28;20104;-83
2022/03/28 01:42:23;;;;;;;28.15;8.18;;;;;;;6.37;69.29;102552.72;5072311;28;20024;-83
2022/03/28 01:44:50;;;;;;;23.30;7.82;;;;;;;6.36;70.10;102545.69;5071464;28;20036;-82
2022/03/28 01:47:17;;;;;;;24.83;8.20;;;;;;;6.35;70.55;102539.50;5071338;28;20043;-82
2022/03/28 01:49:42;;;;;;;23.45;7.47;;;;;;;6.36;70.32;102543.06;5053535;28;20480;-82
2022/03/28 01:52:08;;;;;;;22.30;7.80;;;;;;;6.33;69.87;102546.50;5069816;28;20036;-83
2022/03/28 01:54:33;;;;;;;20.30;7.40;;;;;;;6.32;71.20;102542.06;5071554;28;20167;-83
2022/03/28 01:56:59;;;;;;;27.20;7.65;;;;;;;6.31;70.72;102547.31;5071116;28;20097;-83
2022/03/28 01:59:24;;;;;;;22.08;7.25;;;;;;;6.30;70.10;102548.16;5069536;28;20305;-83
2022/03/28 02:01:51;;;;;;;24.73;8.18;;;;;;;6.29;69.62;102547.28;5070988;28;20091;-82
2022/03/28 02:04:16;;;;;;;21.08;7.30;;;;;;;6.26;70.39;102547.22;5054712;28;20036;-82
2022/03/28 02:06:42;;;;;;;21.83;7.32;;;;;;;6.27;70.21;102541.09;5069684;28;20035;-82
2022/03/28 02:09:07;;;;;;;27.17;8.40;;;;;;;6.27;70.27;102534.94;5070912;28;20036;-82
2022/03/28 02:11:34;;;;;;;26.95;8.88;;;;;;;6.24;71.14;102530.50;5052859;28;20189;-83
2022/03/28 02:13:59;;;;;;;28.88;8.15;;;;;;;6.24;71.20;102533.13;5052975;28;20048;-83
2022/03/28 02:16:25;;;;;;;25.00;7.32;;;;;;;6.24;71.58;102536.66;5056077;28;20519;-82
2022/03/28 02:18:50;;;;;;;23.40;7.22;;;;;;;6.22;71.12;102527.81;5091484;28;20036;-83
2022/03/28 02:21:16;;;;;;;23.23;7.53;;;;;;;6.23;70.72;102528.69;5091218;28;20372;-83
2022/03/28 02:23:41;;;;;;;23.67;7.57;;;;;;;6.20;70.84;102518.13;5091183;28;20063;-83
2022/03/28 02:26:07;;;;;;;21.90;7.57;;;;;;;6.21;71.16;102517.28;5073163;28;20458;-83
2022/03/28 02:28:33;;;;;;;26.42;7.75;;;;;;;6.17;71.02;102521.56;5091039;28;20123;-83
2022/03/28 02:30:59;;;;;;;32.78;7.82;;;;;;;6.16;71.86;102519.81;5090976;28;20149;-83
2022/03/28 02:33:24;;;;;;;27.50;8.10;;;;;;;6.16;71.81;102524.19;5092558;28;20047;-83
2022/03/28 02:35:51;;;;;;;26.35;7.18;;;;;;;6.13;72.35;102519.75;5090403;28;20119;-83
2022/03/28 02:38:16;;;;;;;24.33;7.78;;;;;;;6.08;71.61;102521.34;5074876;28;20420;-83
2022/03/28 02:40:42;;;;;;;21.90;7.40;;;;;;;6.06;71.66;102514.28;5079434;28;20048;-83
2022/03/28 02:43:07;;;;;;;22.05;6.75;;;;;;;6.00;72.06;102510.66;5086447;28;20020;-83
2022/03/28 02:45:35;;;;;;;21.50;7.22;;;;;;;5.96;72.22;102500.94;5074543;28;20492;-83
2022/03/28 02:48:02;;;;;;;24.88;7.90;;;;;;;5.94;71.01;102499.13;5088289;28;20134;-83
2022/03/28 02:50:29;;;;;;;21.20;6.45;;;;;;;5.90;71.18;102495.47;5076466;28;20020;-83
2022/03/28 02:52:55;;;;;;;24.17;6.97;;;;;;;5.85;71.60;102493.59;5094717;28;20051;-83
2022/03/28 02:55:21;;;;;;;22.25;6.90;;;;;;;5.85;72.16;102483.06;5076695;28;20040;-82
2022/03/28 02:57:47;;;;;;;31.80;7.70;;;;;;;5.83;72.13;102488.28;5094675;28;20114;-83
2022/03/28 03:00:13;;;;;;;22.92;6.70;;;;;;;5.81;72.12;102484.72;5093489;28;20035;-83
2022/03/28 03:02:40;;;;;;;20.65;7.45;;;;;;;5.81;72.64;102482.09;5076528;28;20051;-82
2022/03/28 03:05:06;;;;;;;24.05;7.57;;;;;;;5.77;72.83;102470.63;5072963;28;20032;-82
2022/03/28 03:07:32;;;;;;;26.27;7.65;;;;;;;5.75;73.09;102469.69;5072914;28;20052;-83
2022/03/28 03:09:58;;;;;;;22.63;7.18;;;;;;;5.75;73.59;102474.97;5074252;28;20037;-83
2022/03/28 03:12:23;;;;;;;19.38;6.63;;;;;;;5.75;72.75;102476.72;5072796;28;20037;-83
2022/03/28 03:14:50;;;;;;;24.95;7.50;;;;;;;5.72;72.81;102471.38;5072957;28;20059;-82
2022/03/28 03:17:16;;;;;;;25.00;7.60;;;;;;;5.69;72.56;102472.19;5049154;28;20045;-82
2022/03/28 03:19:41;;;;;;;27.65;6.57;;;;;;;5.67;73.12;102473.91;5032800;28;20060;-82
2022/03/28 03:22:10;;;;;;;24.40;7.57;;;;;;;5.65;73.14;102467.72;5034185;28;20034;-82
2022/03/28 03:24:35;;;;;;;23.98;7.18;;;;;;;5.64;73.00;102462.41;5055150;28;20036;-82
2022/03/28 03:27:01;;;;;;;27.00;7.70;;;;;;;5.64;74.55;102471.19;5052059;28;20409;-82
2022/03/28 03:29:27;;;;;;;28.00;7.20;;;;;;;5.59;73.93;102465.81;5046757;28;20044;-82
2022/03/28 03:31:52;;;;;;;25.95;7.07;;;;;;;5.58;74.05;102463.16;5046083;28;20040;-82
2022/03/28 03:34:19;;;;;;;23.05;6.70;;;;;;;5.56;73.55;102459.59;5035974;28;20055;-83
2022/03/28 03:36:45;;;;;;;21.75;6.63;;;;;;;5.53;73.38;102456.91;5040801;28;20087;-82
2022/03/28 03:39:10;;;;;;;28.75;7.63;;;;;;;5.52;74.34;102453.38;5041456;28;20381;-82
2022/03/28 03:41:36;;;;;;;23.77;7.03;;;;;;;5.49;74.84;102458.56;5068107;28;20033;-82
2022/03/28 03:44:01;;;;;;;31.08;7.22;;;;;;;5.48;73.78;102454.16;5044200;28;20121;-82
2022/03/28 03:46:27;;;;;;;22.67;7.68;;;;;;;5.44;74.65;102459.28;5039389;28;20037;-83
2022/03/28 03:48:52;;;;;;;24.02;7.72;;;;;;;5.38;73.68;102454.78;5054558;28;20802;-82
2022/03/28 03:51:18;;;;;;;27.42;7.75;;;;;;;5.36;74.00;102448.59;5037666;28;20036;-82
2022/03/28 03:53:43;;;;;;;27.77;7.55;;;;;;;5.34;74.65;102453.81;5037904;28;20402;-83
2022/03/28 03:56:09;;;;;;;27.83;7.05;;;;;;;5.30;73.61;102445.81;5046173;28;20047;-83
2022/03/28 03:58:35;;;;;;;25.17;7.38;;;;;;;5.25;73.64;102443.06;5049943;28;20465;-82
2022/03/28 04:01:00;;;;;;;28.38;7.57;;;;;;;5.23;74.36;102436.00;5038444;28;20410;-83
2022/03/28 04:03:26;;;;;;;24.90;7.03;;;;;;;5.23;75.11;102436.00;5058695;28;20099;-82
2022/03/28 04:05:51;;;;;;;31.67;7.22;;;;;;;5.21;75.06;102424.56;5036850;28;20045;-82
2022/03/28 04:08:17;;;;;;;27.80;6.63;;;;;;;5.17;74.39;102424.50;5036177;28;20052;-82
2022/03/28 04:10:45;;;;;;;27.70;7.10;;;;;;;5.13;74.71;102422.63;5048288;28;20144;-82
2022/03/28 04:13:11;;;;;;;31.98;7.13;;;;;;;5.12;75.07;102426.09;5033326;28;20037;-82
2022/03/28 04:15:37;;;;;;;22.33;6.35;;;;;;;5.09;75.19;102419.88;5020960;28;20333;-82
2022/03/28 04:18:02;;;;;;;23.23;7.10;;;;;;;5.05;75.13;102425.91;5074288;28;20123;-82
2022/03/28 04:20:29;;;;;;;25.67;7.25;;;;;;;5.01;75.29;102417.06;5071219;28;20040;-81
2022/03/28 04:22:55;;;;;;;26.10;7.15;;;;;;;4.96;75.31;102419.56;5087837;28;20070;-82
2022/03/28 04:25:21;;;;;;;22.05;6.55;;;;;;;4.92;74.30;102412.47;5072573;28;20119;-82
2022/03/28 04:27:47;;;;;;;26.13;7.15;;;;;;;4.89;76.06;102417.59;5071124;28;20131;-82
2022/03/28 04:30:13;;;;;;;32.03;6.95;;;;;;;4.89;76.19;102416.72;5074103;28;20066;-82
2022/03/28 04:32:39;;;;;;;25.30;7.40;;;;;;;4.83;75.29;102419.19;5092362;28;20046;-82
2022/03/28 04:35:06;;;;;;;20.17;7.10;;;;;;;4.81;77.38;102420.88;5092506;28;20036;-82
2022/03/28 04:37:36;;;;;;;23.85;7.00;;;;;;;4.74;75.24;102415.44;5092420;28;20028;-82
2022/03/28 04:40:04;;;;;;;24.15;6.57;;;;;;;4.71;75.58;102419.75;5092133;28;20032;-83
2022/03/28 04:42:30;;;;;;;26.38;6.65;;;;;;;4.70;76.07;102418.88;5091264;28;20039;-82
2022/03/28 04:44:56;;;;;;;23.50;6.32;;;;;;;4.70;76.52;102417.97;5090908;28;20027;-82
2022/03/28 04:47:21;;;;;;;23.58;7.13;;;;;;;4.69;75.92;102419.69;5081750;28;20852;-81
2022/03/28 04:49:47;;;;;;;25.85;6.43;;;;;;;4.66;75.57;102427.50;5070639;28;20033;-81
2022/03/28 04:52:12;;;;;;;23.52;6.28;;;;;;;4.70;76.83;102437.22;5053910;28;20483;-81
2022/03/28 04:54:38;;;;;;;22.45;6.18;;;;;;;4.73;77.00;102433.81;5071799;28;20028;-81
2022/03/28 04:57:04;;;;;;;22.88;6.43;;;;;;;4.75;77.65;102434.75;5070234;28;20040;-81
2022/03/28 04:59:31;;;;;;;23.85;6.15;;;;;;;4.71;77.73;102428.50;5053582;28;20379;-81
2022/03/28 05:01:57;;;;;;;23.95;7.22;;;;;;;4.69;77.66;102427.56;5053282;28;20083;-81
2022/03/28 05:04:23;;;;;;;24.10;6.72;;;;;;;4.67;77.27;102429.28;5070188;28;20031;-81
2022/03/28 05:06:48;;;;;;;23.33;6.75;;;;;;;4.65;76.75;102425.72;5071597;28;20437;-81
2022/03/28 05:09:14;;;;;;;24.17;6.00;;;;;;;4.62;76.72;102424.72;5071511;28;20431;-81
2022/03/28 05:11:39;;;;;;;22.77;6.25;;;;;;;4.61;76.71;102417.72;5064672;28;20115;-81
2022/03/28 05:14:05;;;;;;;26.70;6.60;;;;;;;4.57;77.17;102413.22;5091907;28;20089;-81
2022/03/28 05:16:31;;;;;;;30.17;7.43;;;;;;;4.56;77.39;102421.94;5091368;28;20052;-81
2022/03/28 05:18:56;;;;;;;28.88;6.97;;;;;;;4.57;77.32;102421.97;5091322;28;20383;-82
2022/03/28 05:21:23;;;;;;;25.52;7.57;;;;;;;4.56;77.68;102421.94;5073784;28;20119;-81
2022/03/28 05:23:48;;;;;;;34.22;6.95;;;;;;;4.52;76.70;102416.63;5091682;28;20479;-81
2022/03/28 05:26:14;;;;;;;28.52;6.55;;;;;;;4.48;77.00;102419.13;5092231;28;20119;-81
2022/03/28 05:28:39;;;;;;;23.80;6.25;;;;;;;4.46;76.33;102415.56;5073591;28;20345;-81
2022/03/28 05:31:05;;;;;;;20.52;6.35;;;;;;;4.42;76.18;102411.06;5091717;28;20107;-82
2022/03/28 05:33:31;;;;;;;37.63;7.45;;;;;;;4.41;78.49;102418.03;5072983;28;20416;-81
2022/03/28 05:35:56;;;;;;;23.35;6.40;;;;;;;4.36;78.28;102419.63;5073341;28;20040;-81
2022/03/28 05:38:22;;;;;;;24.02;6.18;;;;;;;4.32;78.29;102416.03;5072927;28;20024;-81
2022/03/28 05:40:48;;;;;;;27.75;6.43;;;;;;;4.29;77.53;102417.69;5083916;28;20083;-82
2022/03/28 05:43:14;;;;;;;21.35;6.38;;;;;;;4.25;77.37;102413.19;5053357;28;20132;-82
2022/03/28 05:45:39;;;;;;;27.73;6.90;;;;;;;4.25;78.83;102416.72;5036911;28;20214;-81
2022/03/28 05:48:05;;;;;;;23.17;6.85;;;;;;;4.23;79.34;102414.91;5071183;28;20452;-82
2022/03/28 05:50:31;;;;;;;23.92;6.68;;;;;;;4.20;78.82;102413.03;5071319;28;20094;-82
2022/03/28 05:52:57;;;;;;;27.98;6.55;;;;;;;4.21;78.92;102411.34;5053180;28;20082;-82
2022/03/28 05:55:22;;;;;;;31.95;7.15;;;;;;;4.20;78.37;102410.41;5071383;28;20036;-81
2022/03/28 05:57:48;;;;;;;20.77;6.47;;;;;;;4.22;78.06;102416.59;5071978;28;20119;-81
2022/03/28 06:00:14;;;;;;;20.55;6.30;;;;;;;4.24;78.63;102407.06;5069827;28;20028;-81
2022/03/28 06:02:44;;;;;;;30.70;7.95;;;;;;;4.28;79.55;102401.06;5090412;28;20379;-81
2022/03/28 06:05:10;;;;;;;33.38;6.85;;;;;;;4.36;79.40;102397.78;5089767;28;20055;-82
2022/03/28 06:07:36;;;;;;;27.48;6.82;;;;;;;4.40;79.80;102400.53;5071540;28;20040;-81
2022/03/28 06:10:03;;;;;;;30.45;7.38;;;;;;;4.44;80.37;102397.13;5090377;28;20165;-81
2022/03/28 06:12:29;;;;;;;26.02;7.38;;;;;;;4.48;79.68;102401.63;5071919;28;20360;-81
2022/03/28 06:14:54;;;;;;;29.80;7.03;;;;;;;4.51;79.92;102392.97;5070553;28;20134;-81
2022/03/28 06:17:24;;;;;;;24.98;6.32;;;;;;;4.56;79.76;102393.09;5069823;28;20128;-81
2022/03/28 06:19:50;;;;;;;26.73;6.60;;;;;;;4.63;79.53;102395.91;5039432;28;20126;-82
2022/03/28 06:22:16;;;;;;;27.92;7.15;;;;;;;4.70;79.71;102397.00;5073216;28;20111;-81
2022/03/28 06:24:42;;;;;;;28.65;6.63;;;;;;;4.76;79.68;102402.38;5089724;28;20112;-81
2022/03/28 06:27:08;;;;;;;25.92;7.20;;;;;;;4.81;80.78;102398.16;5071603;28;20062;-81
2022/03/28 06:29:33;;;;;;;36.05;7.70;;;;;;;4.86;79.96;102388.66;5089538;28;20028;-81
2022/03/28 06:31:59;;;;;;;26.23;7.15;;;;;;;4.92;80.01;102390.53;5090407;28;20024;-81
2022/03/28 06:34:24;;;;;;;25.98;6.72;;;;;;;5.02;79.83;102391.69;5055215;28;20531;-81
2022/03/28 06:36:50;;;;;;;20.90;7.05;;;;;;;5.09;79.89;102388.38;5073041;28;20044;-81
2022/03/28 06:39:16;;;;;;;24.88;6.55;;;;;;;5.16;80.02;102390.28;5069820;28;20086;-81
2022/03/28 06:41:41;;;;;;;28.65;7.70;;;;;;;5.23;80.29;102388.72;5067953;28;20115;-80
2022/03/28 06:44:13;;;;;;;25.15;7.35;;;;;;;5.30;79.66;102390.66;5072205;28;20380;-80
2022/03/28 06:46:40;;;;;;;35.53;8.15;;;;;;;5.35;79.95;102392.53;5074939;28;20055;-81
2022/03/28 06:49:06;;;;;;;29.08;8.18;;;;;;;5.43;80.29;102400.59;5088384;28;20024;-81
2022/03/28 06:51:32;;;;;;;25.17;7.32;;;;;;;5.49;79.74;102400.75;5089932;28;20127;-80
2022/03/28 06:53:58;;;;;;;26.83;6.95;;;;;;;5.58;79.94;102392.19;5071994;28;20040;-80
2022/03/28 06:56:24;;;;;;;26.58;8.35;;;;;;;5.68;80.22;102395.94;5071407;28;20054;-80
2022/03/28 06:58:49;;;;;;;37.38;8.35;;;;;;;5.74;79.95;102396.97;5090062;28;20099;-80
2022/03/28 07:01:14;;;;;;;30.40;7.75;;;;;;;5.83;80.16;102393.66;5088107;28;20438;-80
2022/03/28 07:03:40;;;;;;;27.60;8.48;;;;;;;5.90;78.95;102389.41;5053159;28;20111;-80
2022/03/28 07:06:07;;;;;;;33.20;7.88;;;;;;;5.97;79.08;102394.00;5068454;28;20028;-81
2022/03/28 07:08:33;;;;;;;28.30;8.15;;;;;;;6.02;79.33;102382.72;5067111;28;20056;-81
2022/03/28 07:10:59;;;;;;;24.13;7.55;;;;;;;6.11;79.24;102375.88;5089141;28;20044;-81
2022/03/28 07:13:24;;;;;;;27.95;7.93;;;;;;;6.16;78.92;102371.63;5068988;28;20120;-82
2022/03/28 07:15:50;;;;;;;30.00;8.75;;;;;;;6.24;78.92;102368.28;5071908;28;20103;-82
2022/03/28 07:18:15;;;;;;;27.33;8.32;;;;;;;6.35;78.75;102367.59;5055266;28;20163;-82
2022/03/28 07:20:43;;;;;;;27.10;8.45;;;;;;;6.45;78.40;102364.28;5074236;28;20044;-82
2022/03/28 07:23:10;;;;;;;25.38;8.38;;;;;;;6.54;78.05;102358.34;5057128;28;20032;-82
2022/03/28 07:25:36;;;;;;;45.72;10.15;;;;;;;6.64;78.85;102362.91;5069068;28;20032;-82
2022/03/28 07:28:12;;;;;;;26.13;8.68;;;;;;;6.73;77.91;102363.09;5075472;28;20440;-82
2022/03/28 07:30:40;;;;;;;31.25;9.70;;;;;;;6.84;77.96;102355.38;5076861;28;20070;-82
2022/03/28 07:33:06;;;;;;;30.38;9.68;;;;;;;6.96;78.19;102365.25;5093882;28;20074;-81
2022/03/28 07:35:36;;;;;;;24.27;8.93;;;;;;;7.06;77.73;102360.16;5093524;28;20511;-81
2022/03/28 07:38:08;;;;;;;34.65;10.57;;;;;;;7.17;77.28;102360.34;5074402;28;20048;-81
2022/03/28 07:40:40;;;;;;;29.42;10.07;;;;;;;7.24;77.57;102349.00;5093513;28;20040;-82
2022/03/28 07:43:07;;;;;;;29.20;9.57;;;;;;;7.30;77.73;102349.13;5081586;28;20044;-82
2022/03/28 07:45:33;;;;;;;29.52;10.32;;;;;;;7.41;77.44;102351.91;5075528;28;20336;-82
2022/03/28 07:47:59;;;;;;;34.40;9.82;;;;;;;7.51;76.88;102345.91;5092132;28;20032;-82
2022/03/28 07:50:25;;;;;;;35.13;10.43;;;;;;;7.64;77.10;102351.38;5092276;28;20548;-82
2022/03/28 07:52:50;;;;;;;34.58;10.73;;;;;;;7.75;76.11;102339.25;5092084;28;20613;-82
2022/03/28 07:55:17;;;;;;;29.17;11.25;;;;;;;7.84;76.54;102342.00;5075752;28;20028;-82
2022/03/28 07:57:43;;;;;;;26.20;9.60;;;;;;;7.96;75.73;102338.63;5093693;28;20039;-82
2022/03/28 08:00:15;;;;;;;35.22;11.02;;;;;;;8.10;76.17;102336.19;5075730;28;20356;-83
2022/03/28 08:02:40;;;;;;;35.33;11.65;;;;;;;8.21;74.85;102328.38;5093513;28;20060;-82
2022/03/28 08:05:07;;;;;;;34.35;13.15;;;;;;;8.33;75.12;102318.88;5063264;28;20051;-82
2022/03/28 08:07:34;;;;;;;31.30;12.50;;;;;;;8.47;74.55;102328.72;5055178;28;20040;-82
2022/03/28 08:10:00;;;;;;;31.10;12.68;;;;;;;8.59;74.56;102323.56;5073331;28;20075;-82
2022/03/28 08:12:26;;;;;;;32.10;13.07;;;;;;;8.66;74.58;102322.75;5055341;28;20108;-81
2022/03/28 08:14:52;;;;;;;38.08;13.30;;;;;;;8.75;73.28;102325.50;5073247;28;20547;-82
2022/03/28 08:17:19;;;;;;;34.70;12.43;;;;;;;8.89;73.50;102322.09;5031622;28;20049;-82
2022/03/28 08:19:46;;;;;;;31.67;12.93;;;;;;;9.00;73.68;102321.31;5050769;28;20098;-82
2022/03/28 08:22:11;;;;;;;32.50;12.50;;;;;;;9.13;73.15;102317.00;5050612;28;20048;-82
2022/03/28 08:24:37;;;;;;;35.72;12.88;;;;;;;9.24;71.95;102317.06;5034381;28;20045;-81
2022/03/28 08:27:02;;;;;;;32.83;13.35;;;;;;;9.32;72.57;102320.69;5040132;28;20377;-82
2022/03/28 08:29:28;;;;;;;41.35;14.18;;;;;;;9.45;71.96;102319.00;5070259;28;20024;-82
2022/03/28 08:31:54;;;;;;;38.70;14.73;;;;;;;9.57;71.01;102310.22;5063938;28;20468;-82
2022/03/28 08:34:19;;;;;;;36.90;15.20;;;;;;;9.62;71.49;102301.47;5051234;28;20372;-81
2022/03/28 08:36:45;;;;;;;37.97;14.60;;;;;;;9.71;70.65;102303.25;5065765;28;20154;-81
2022/03/28 08:39:11;;;;;;;38.17;14.95;;;;;;;9.82;70.74;102300.69;5035162;28;20144;-81
2022/03/28 08:41:36;;;;;;;32.42;15.02;;;;;;;9.93;70.23;102298.94;5063641;28;20473;-80
2022/03/28 08:44:03;;;;;;;38.42;14.10;;;;;;;10.06;69.67;102298.13;5067019;28;20102;-81
2022/03/28 08:46:29;;;;;;;33.90;15.20;;;;;;;10.16;70.15;102298.16;5067981;28;20430;-80
2022/03/28 08:48:57;;;;;;;32.25;12.48;;;;;;;10.27;69.12;102292.00;5070425;28;20058;-80
2022/03/28 08:51:23;;;;;;;34.80;14.68;;;;;;;10.39;69.08;102285.91;5086587;28;20036;-80
2022/03/28 08:53:48;;;;;;;40.25;14.23;;;;;;;10.54;68.35;102291.22;5071167;28;20033;-80
2022/03/28 08:56:14;;;;;;;37.80;15.77;;;;;;;10.67;68.57;102293.88;5070111;28;20139;-80
2022/03/28 08:58:39;;;;;;;36.33;14.77;;;;;;;10.79;67.91;102296.53;5032503;28;20380;-80
2022/03/28 09:01:05;;;;;;;39.75;15.23;;;;;;;10.92;67.65;102294.78;5051181;28;20041;-81
2022/03/28 09:03:39;;;;;;;33.47;13.85;;;;;;;10.98;67.67;102293.00;5066418;28;20098;-81
2022/03/28 09:06:31;;;;;;;37.08;15.90;;;;;;;11.09;67.15;102293.00;5051338;28;20044;-81
2022/03/28 09:09:09;;;;;;;34.20;14.68;;;;;;;11.20;65.95;102279.72;5049536;28;20083;-81
2022/03/28 09:11:35;;;;;;;36.22;16.10;;;;;;;11.37;66.44;102291.22;5049774;28;20110;-80
2022/03/28 09:14:00;;;;;;;36.50;14.77;;;;;;;11.56;66.10;102291.16;5050871;28;20108;-79
2022/03/28 09:16:29;;;;;;;36.65;15.38;;;;;;;11.74;64.70;102274.28;5053051;28;20045;-80
2022/03/28 09:18:56;;;;;;;43.08;15.75;;;;;;;11.88;64.92;102280.47;5070898;28;20040;-80
2022/03/28 09:21:24;;;;;;;42.75;16.38;;;;;;;12.00;64.04;102268.91;5052812;28;20029;-80
2022/03/28 09:23:51;;;;;;;38.70;16.63;;;;;;;12.15;63.44;102281.22;5070712;28;20024;-80
2022/03/28 09:26:21;;;;;;;39.38;15.88;;;;;;;12.25;63.21;102267.88;5052647;28;20086;-80
2022/03/28 09:29:00;;;;;;;46.40;17.63;;;;;;;12.42;63.02;102272.22;5070718;28;20062;-80
2022/03/28 09:31:34;;;;;;;40.25;19.35;;;;;;;12.51;61.79;102273.91;5052726;28;20117;-80
2022/03/28 09:34:07;;;;;;;46.38;20.55;;;;;;;12.58;61.13;102263.22;5070308;28;20491;-80
2022/03/28 09:36:37;;;;;;;40.65;18.20;;;;;;;12.70;61.64;102267.56;5068316;28;20039;-80
2022/03/28 09:39:07;;;;;;;36.75;17.48;;;;;;;12.87;61.45;102262.09;5090850;28;20493;-80
2022/03/28 09:41:33;;;;;;;41.40;17.08;;;;;;;13.05;61.89;102263.72;5079567;28;20446;-80
2022/03/28 09:43:59;;;;;;;38.38;17.23;;;;;;;13.23;60.81;102246.69;5085847;28;20355;-80
2022/03/28 09:46:26;;;;;;;41.88;18.02;;;;;;;13.42;60.29;102252.72;5069896;28;20032;-80
2022/03/28 09:48:52;;;;;;;42.70;21.05;;;;;;;13.49;57.97;102251.75;5070845;28;20037;-80
2022/03/28 09:51:21;;;;;;;39.08;18.83;;;;;;;13.57;59.33;102257.00;5071319;28;20511;-81
2022/03/28 09:53:47;;;;;;;44.67;20.10;;;;;;;13.77;59.13;102252.31;5053088;28;20106;-81
2022/03/28 09:56:13;;;;;;;41.03;19.05;;;;;;;13.91;57.90;102249.47;5071299;28;20486;-81
2022/03/28 09:58:48;;;;;;;42.13;19.02;;;;;;;14.05;56.99;102241.31;5057017;28;20436;-80
2022/03/28 10:01:23;;;;;;;41.30;19.33;;;;;;;14.18;56.83;102238.44;5072940;28;20040;-81
2022/03/28 10:03:55;;;;;;;40.85;19.63;;;;;;;14.30;55.72;102240.03;5071045;28;20036;-80
2022/03/28 10:06:22;;;;;;;43.83;21.77;;;;;;;14.45;55.46;102235.38;5053347;28;20467;-81
2022/03/28 10:08:49;;;;;;;46.00;21.35;;;;;;;14.60;55.42;102233.38;5079952;28;20176;-81
2022/03/28 10:11:16;;;;;;;44.08;20.35;;;;;;;14.75;54.78;102234.03;5078489;28;20036;-81
2022/03/28 10:13:42;;;;;;;41.35;20.52;;;;;;;14.76;53.63;102226.03;5064642;28;20367;-81
2022/03/28 10:16:08;;;;;;;44.95;19.35;;;;;;;14.69;55.10;102221.69;5079124;28;20127;-81
2022/03/28 10:18:35;;;;;;;37.03;18.88;;;;;;;14.82;54.47;102227.69;5079673;28;20379;-80
2022/03/28 10:21:21;;;;;;;46.13;19.45;;;;;;;15.04;54.79;102220.19;5055146;28;20475;-81
2022/03/28 10:24:10;;;;;;;40.20;18.23;;;;;;;15.29;54.51;102219.72;5052476;28;20131;-81
2022/03/28 10:26:42;;;;;;;31.13;17.92;;;;;;;15.48;53.23;102218.44;5070638;28;20372;-81
2022/03/28 10:29:19;;;;;;;39.47;18.15;;;;;;;15.63;53.32;102211.91;5052267;28;20175;-81
2022/03/28 10:32:06;;;;;;;38.33;17.65;;;;;;;15.85;53.58;102205.22;5060764;28;20032;-81
2022/03/28 10:34:52;;;;;;;37.70;18.65;;;;;;;15.79;51.10;102207.13;5077754;28;20384;-81
2022/03/28 10:37:31;;;;;;;35.45;18.17;;;;;;;15.73;52.08;102194.81;5072160;28;20107;-81
2022/03/28 10:40:12;;;;;;;33.30;17.17;;;;;;;15.92;51.64;102192.59;5067996;28;20037;-81
2022/03/28 10:42:44;;;;;;;29.58;16.10;;;;;;;16.17;51.28;102186.69;5057694;28;20043;-81
2022/03/28 10:45:09;;;;;;;35.97;16.52;;;;;;;16.33;50.66;102175.59;5075833;28;20056;-81
2022/03/28 10:47:41;;;;;;;35.60;17.60;;;;;;;16.59;49.77;102181.19;5070345;28;20062;-81
2022/03/28 10:50:12;;;;;;;34.90;17.85;;;;;;;16.72;49.98;102186.19;5055157;28;20071;-81
2022/03/28 10:52:38;;;;;;;36.20;17.10;;;;;;;16.84;49.51;102178.78;5051247;28;20105;-81
2022/03/28 10:55:10;;;;;;;31.63;16.85;;;;;;;16.96;49.01;102170.41;5066590;28;20168;-81
2022/03/28 10:57:37;;;;;;;31.83;15.85;;;;;;;16.98;47.61;102171.25;5071844;28;20056;-82
2022/03/28 11:00:09;;;;;;;34.78;16.10;;;;;;;17.14;48.74;102166.38;5078864;28;20036;-82
2022/03/28 11:02:36;;;;;;;30.70;15.63;;;;;;;17.33;48.03;102164.94;5075994;28;20036;-81
2022/03/28 11:05:21;;;;;;;32.35;16.58;;;;;;;17.54;48.33;102158.06;5074750;28;20040;-82
2022/03/28 11:07:50;;;;;;;33.08;17.38;;;;;;;17.74;47.41;102153.91;5060495;28;20352;-82
2022/03/28 11:10:16;;;;;;;34.00;17.90;;;;;;;17.96;46.79;102152.31;5055398;28;20029;-82
2022/03/28 11:12:42;;;;;;;34.78;17.83;;;;;;;18.19;46.65;102154.25;5068964;28;20039;-82
2022/03/28 11:15:11;;;;;;;30.20;16.50;;;;;;;18.40;45.56;102149.13;5093765;28;20039;-82
2022/03/28 11:17:38;;;;;;;32.92;17.10;;;;;;;18.47;44.66;102151.53;5075360;28;20446;-82
2022/03/28 11:20:06;;;;;;;36.63;17.40;;;;;;;18.56;44.81;102141.41;5080971;28;20025;-82
2022/03/28 11:22:52;;;;;;;32.08;17.73;;;;;;;18.67;45.16;102145.47;5091735;28;20031;-82
2022/03/28 11:25:26;;;;;;;28.52;17.10;;;;;;;18.93;44.88;102137.47;5068948;28;20031;-82